Time;durP1;ratioP1;P1;durP2;ratioP2;P2;SDS_P1;SDS_P2;PMS_P1;PMS_P2;Temp;Humidity;BMP_temperature;BMP_pressure;BME280_temperature;BME280_humidity;BME280_pressure;Samples;Min_cycle;Max_cycle;Signal;HPM_P1;HPM_P2
2023/06/10 00:00:22;;;;;;;0.50;0.40;;;19.70;99.90;;;;;;5040870;28;20529;-82
2023/06/10 00:02:49;;;;;;;2.00;1.90;;;19.60;99.90;;;;;;5042928;28;20477;-84
2023/06/10 00:05:21;;;;;;;0.50;0.30;;;19.60;99.90;;;;;;5043130;28;20449;-83
2023/06/10 00:07:49;;;;;;;0.50;0.30;;;19.60;99.90;;;;;;5045039;28;20469;-84
2023/06/10 00:10:19;;;;;;;0.50;0.30;;;19.50;99.90;;;;;;5045355;28;20488;-82
2023/06/10 00:12:46;;;;;;;0.60;0.40;;;19.50;99.90;;;;;;5045170;28;20449;-83
2023/06/10 00:15:12;;;;;;;0.50;0.37;;;19.40;99.90;;;;;;5044555;28;20449;-84
2023/06/10 00:17:40;;;;;;;0.50;0.30;;;19.40;99.90;;;;;;5044141;28;20454;-81
2023/06/10 00:20:11;;;;;;;0.50;0.30;;;19.40;99.90;;;;;;5044686;28;20556;-84
2023/06/10 00:22:41;;;;;;;0.50;0.40;;;19.40;99.90;;;;;;5035893;28;20961;-83
2023/06/10 00:25:09;;;;;;;0.50;0.30;;;19.30;99.90;;;;;;5043800;28;20438;-84
2023/06/10 00:27:35;;;;;;;0.50;0.30;;;19.30;99.90;;;;;;5043380;28;20547;-83
2023/06/10 00:30:06;;;;;;;0.50;0.40;;;19.20;99.90;;;;;;5043355;28;20539;-83
2023/06/10 00:32:33;;;;;;;0.50;0.40;;;19.20;99.90;;;;;;5036350;28;20437;-82
2023/06/10 00:35:00;;;;;;;0.50;0.30;;;19.20;99.90;;;;;;5044110;28;20485;-84
2023/06/10 00:37:27;;;;;;;0.50;0.30;;;19.20;99.90;;;;;;5043995;28;20493;-83
2023/06/10 00:39:55;;;;;;;2.30;2.20;;;19.10;99.90;;;;;;5044051;28;20468;-84
2023/06/10 00:42:23;;;;;;;0.60;0.40;;;19.10;99.90;;;;;;5043890;28;20470;-84
2023/06/10 00:44:50;;;;;;;1.03;0.93;;;19.10;99.90;;;;;;5044385;28;20442;-83
2023/06/10 00:47:18;;;;;;;0.50;0.30;;;19.00;99.90;;;;;;5043659;28;20440;-83
2023/06/10 00:49:46;;;;;;;0.50;0.40;;;19.00;99.90;;;;;;5043484;28;20556;-83
2023/06/10 00:52:13;;;;;;;0.50;0.40;;;18.90;99.90;;;;;;5044103;28;20507;-84
2023/06/10 00:54:40;;;;;;;0.50;0.40;;;18.90;99.90;;;;;;5043617;28;20841;-82
2023/06/10 00:57:08;;;;;;;0.80;0.80;;;18.80;99.90;;;;;;5043137;28;20513;-84
2023/06/10 00:59:35;;;;;;;0.50;0.30;;;18.70;99.90;;;;;;5044226;28;20465;-83
2023/06/10 01:02:03;;;;;;;0.50;0.30;;;18.70;99.90;;;;;;5047881;28;20465;-83
2023/06/10 01:04:30;;;;;;;0.50;0.40;;;18.60;99.90;;;;;;5044860;28;20450;-83
2023/06/10 01:07:12;;;;;;;0.50;0.40;;;18.60;99.90;;;;;;5046945;28;20449;-83
2023/06/10 01:09:43;;;;;;;0.50;0.30;;;18.60;99.90;;;;;;5042652;28;20446;-82
2023/06/10 01:12:17;;;;;;;0.60;0.50;;;18.60;99.90;;;;;;5056661;28;20466;-82
2023/06/10 01:14:44;;;;;;;0.50;0.40;;;18.50;99.90;;;;;;5047655;28;20498;-82
2023/06/10 01:17:12;;;;;;;0.50;0.43;;;18.40;99.90;;;;;;5055973;28;20456;-82
2023/06/10 01:19:40;;;;;;;0.50;0.30;;;18.50;99.90;;;;;;5055865;28;20469;-82
2023/06/10 01:22:10;;;;;;;0.53;0.47;;;18.40;99.90;;;;;;5053117;28;20445;-84
2023/06/10 01:24:40;;;;;;;0.50;0.30;;;18.40;99.90;;;;;;5040144;28;20449;-82
2023/06/10 01:27:13;;;;;;;0.80;0.70;;;18.30;99.90;;;;;;5047517;28;20461;-83
2023/06/10 01:29:45;;;;;;;0.50;0.40;;;18.30;99.90;;;;;;5039997;28;20977;-82
2023/06/10 01:32:18;;;;;;;0.60;0.60;;;18.30;99.90;;;;;;5047833;28;20499;-83
2023/06/10 01:34:45;;;;;;;0.50;0.30;;;18.30;99.90;;;;;;5047793;28;20489;-84
2023/06/10 01:37:18;;;;;;;0.50;0.30;;;18.30;99.90;;;;;;5047115;28;20461;-82
2023/06/10 01:39:47;;;;;;;0.50;0.40;;;18.30;99.90;;;;;;5047009;28;20466;-83
2023/06/10 01:42:14;;;;;;;0.50;0.40;;;18.30;99.90;;;;;;5047232;28;20538;-83
2023/06/10 01:44:41;;;;;;;0.50;0.30;;;18.30;99.90;;;;;;5046725;28;20492;-83
2023/06/10 01:47:09;;;;;;;0.50;0.30;;;18.30;99.90;;;;;;5047214;28;20442;-83
2023/06/10 01:49:35;;;;;;;0.50;0.33;;;18.20;99.90;;;;;;5046250;28;20541;-83
2023/06/10 01:52:02;;;;;;;0.50;0.40;;;18.20;99.90;;;;;;5043547;28;20450;-82
2023/06/10 01:54:31;;;;;;;1.47;1.37;;;18.20;99.90;;;;;;5044755;28;20517;-84
2023/06/10 01:56:57;;;;;;;0.50;0.30;;;18.20;99.90;;;;;;5043800;28;20464;-84
2023/06/10 01:59:24;;;;;;;0.50;0.40;;;18.20;99.90;;;;;;5044013;28;20981;-82
2023/06/10 02:01:51;;;;;;;0.50;0.30;;;18.20;99.90;;;;;;5042654;28;20458;-82
2023/06/10 02:04:18;;;;;;;0.50;0.40;;;18.20;99.90;;;;;;5040481;28;20505;-81
2023/06/10 02:06:46;;;;;;;0.60;0.50;;;18.10;99.90;;;;;;5041833;28;20481;-81
2023/06/10 02:09:12;;;;;;;1.90;1.80;;;18.10;99.90;;;;;;5040861;28;20461;-82
2023/06/10 02:11:41;;;;;;;0.50;0.40;;;18.10;99.90;;;;;;5029825;28;20923;-78
2023/06/10 02:14:07;;;;;;;0.50;0.40;;;18.10;99.90;;;;;;5037936;28;20442;-81
2023/06/10 02:16:34;;;;;;;0.50;0.40;;;18.10;99.90;;;;;;5038805;28;20485;-82
2023/06/10 02:19:03;;;;;;;0.50;0.40;;;18.20;99.90;;;;;;5040689;28;20493;-81
2023/06/10 02:21:29;;;;;;;2.20;2.10;;;18.10;99.90;;;;;;5039381;28;20478;-82
2023/06/10 02:23:56;;;;;;;0.50;0.30;;;18.10;99.90;;;;;;5039974;28;20956;-82
2023/06/10 02:26:25;;;;;;;0.80;0.50;;;18.10;99.90;;;;;;5041019;28;20474;-82
2023/06/10 02:28:55;;;;;;;0.50;0.40;;;18.00;99.90;;;;;;5039234;28;20493;-81
2023/06/10 02:31:24;;;;;;;0.50;0.30;;;18.00;99.90;;;;;;5037277;28;20474;-81
2023/06/10 02:33:50;;;;;;;1.43;1.43;;;18.00;99.90;;;;;;5040862;28;20446;-81
2023/06/10 02:36:17;;;;;;;0.50;0.30;;;18.00;99.90;;;;;;5038414;28;20904;-82
2023/06/10 02:38:44;;;;;;;0.50;0.40;;;18.00;99.90;;;;;;5038061;28;20446;-82
2023/06/10 02:41:11;;;;;;;0.50;0.40;;;17.90;99.90;;;;;;5039751;28;21045;-81
2023/06/10 02:43:39;;;;;;;0.50;0.30;;;17.90;99.90;;;;;;5036741;28;20878;-81
2023/06/10 02:46:07;;;;;;;2.30;2.10;;;17.90;99.90;;;;;;5033265;28;20457;-83
2023/06/10 02:48:41;;;;;;;0.50;0.30;;;17.90;99.90;;;;;;5037813;28;20520;-81
2023/06/10 02:51:08;;;;;;;0.50;0.30;;;17.80;99.90;;;;;;5034166;28;20472;-81
2023/06/10 02:53:35;;;;;;;0.60;0.60;;;17.80;99.90;;;;;;5033439;28;20537;-78
2023/06/10 02:56:02;;;;;;;0.50;0.30;;;17.80;99.90;;;;;;5033609;28;20453;-81
2023/06/10 02:58:29;;;;;;;0.50;0.33;;;17.80;99.90;;;;;;5033357;28;20452;-79
2023/06/10 03:00:56;;;;;;;0.50;0.40;;;17.70;99.90;;;;;;5033819;28;20442;-82
2023/06/10 03:03:25;;;;;;;0.50;0.50;;;17.70;99.90;;;;;;5033440;28;20446;-81
2023/06/10 03:05:52;;;;;;;0.50;0.30;;;17.70;99.90;;;;;;5033321;28;20452;-81
2023/06/10 03:08:19;;;;;;;0.50;0.40;;;17.70;99.90;;;;;;5032578;28;20444;-81
2023/06/10 03:10:45;;;;;;;0.50;0.33;;;17.60;99.90;;;;;;5031972;28;20482;-80
2023/06/10 03:13:14;;;;;;;0.50;0.40;;;17.60;99.90;;;;;;5032054;28;20825;-79
2023/06/10 03:15:41;;;;;;;0.50;0.30;;;17.60;99.90;;;;;;5031641;28;20445;-79
2023/06/10 03:18:08;;;;;;;0.50;0.40;;;17.60;99.90;;;;;;5031961;28;20442;-80
2023/06/10 03:20:37;;;;;;;0.50;0.40;;;17.60;99.90;;;;;;5031727;28;20469;-80
2023/06/10 03:23:05;;;;;;;3.73;1.97;;;17.60;99.90;;;;;;5031872;28;20532;-80
2023/06/10 03:25:31;;;;;;;0.50;0.40;;;17.60;99.90;;;;;;5031533;28;20478;-80
2023/06/10 03:27:58;;;;;;;1.03;0.97;;;17.60;99.90;;;;;;5031865;28;20480;-80
2023/06/10 03:30:25;;;;;;;9.03;8.60;;;17.60;99.90;;;;;;5031384;28;20489;-80
2023/06/10 03:32:52;;;;;;;1.23;1.13;;;17.60;99.90;;;;;;5031644;28;20444;-82
2023/06/10 03:35:19;;;;;;;0.50;0.30;;;17.60;99.90;;;;;;5031548;28;20529;-80
2023/06/10 03:37:47;;;;;;;0.50;0.40;;;17.60;99.90;;;;;;5023573;28;20446;-80
2023/06/10 03:40:14;;;;;;;1.63;0.87;;;17.60;99.90;;;;;;5032011;28;20609;-79
2023/06/10 03:42:41;;;;;;;0.60;0.60;;;17.50;99.90;;;;;;5031254;28;20533;-80
2023/06/10 03:45:08;;;;;;;0.50;0.40;;;17.50;99.90;;;;;;5031455;28;20450;-80
2023/06/10 03:47:36;;;;;;;0.50;0.40;;;17.50;99.90;;;;;;5030882;28;20866;-80
2023/06/10 03:50:04;;;;;;;0.50;0.40;;;17.50;99.90;;;;;;5031512;28;20520;-80
2023/06/10 03:52:31;;;;;;;0.50;0.30;;;17.50;99.90;;;;;;5031306;28;20469;-80
2023/06/10 03:54:59;;;;;;;0.50;0.30;;;17.60;99.90;;;;;;5031957;28;20452;-80
2023/06/10 03:57:26;;;;;;;0.50;0.40;;;17.50;99.90;;;;;;5030837;28;20438;-80
2023/06/10 03:59:56;;;;;;;0.53;0.47;;;17.50;99.90;;;;;;5031070;28;20466;-79
2023/06/10 04:02:23;;;;;;;0.50;0.33;;;17.50;99.90;;;;;;5031239;28;20556;-80
2023/06/10 04:04:50;;;;;;;0.50;0.30;;;17.60;99.90;;;;;;5031546;28;20450;-81
2023/06/10 04:07:18;;;;;;;1.17;0.90;;;17.60;99.90;;;;;;5031520;28;20460;-80
2023/06/10 04:09:46;;;;;;;0.50;0.37;;;17.60;99.90;;;;;;5031482;28;20465;-80
2023/06/10 04:12:14;;;;;;;0.50;0.40;;;17.60;99.90;;;;;;5031298;28;20473;-80
2023/06/10 04:14:41;;;;;;;0.50;0.40;;;17.60;99.90;;;;;;5030921;28;20468;-80
2023/06/10 04:17:08;;;;;;;0.50;0.30;;;17.50;99.90;;;;;;5031219;28;20532;-80
2023/06/10 04:19:35;;;;;;;1.03;1.03;;;17.60;99.90;;;;;;5032272;28;20509;-80
2023/06/10 04:22:02;;;;;;;0.50;0.30;;;17.70;99.90;;;;;;5033862;28;20521;-80
2023/06/10 04:24:29;;;;;;;0.63;0.63;;;17.70;99.90;;;;;;5033835;28;20473;-81
2023/06/10 04:26:55;;;;;;;0.60;0.50;;;17.70;99.90;;;;;;5034333;28;20478;-79
2023/06/10 04:29:24;;;;;;;0.60;0.53;;;17.70;99.90;;;;;;5040589;28;20466;-79
2023/06/10 04:31:50;;;;;;;0.50;0.30;;;17.70;99.90;;;;;;5040124;28;20513;-80
2023/06/10 04:34:17;;;;;;;0.70;0.60;;;17.70;99.90;;;;;;5041472;28;20442;-80
2023/06/10 04:36:44;;;;;;;1.00;0.90;;;17.80;99.90;;;;;;5044742;28;20469;-80
2023/06/10 04:39:11;;;;;;;0.60;0.47;;;17.80;99.90;;;;;;5043185;28;20521;-81
2023/06/10 04:41:38;;;;;;;1.53;1.43;;;17.80;99.90;;;;;;5040777;28;20946;-82
2023/06/10 04:44:05;;;;;;;2.67;2.40;;;17.80;99.90;;;;;;5041889;28;20502;-81
2023/06/10 04:46:33;;;;;;;2.60;1.17;;;17.80;99.90;;;;;;5040604;28;20525;-83
2023/06/10 04:49:00;;;;;;;0.60;0.50;;;17.80;99.90;;;;;;5040629;28;20468;-83
2023/06/10 04:51:26;;;;;;;2.97;1.23;;;17.90;99.90;;;;;;5040502;28;20473;-81
2023/06/10 04:53:53;;;;;;;2.23;2.13;;;17.90;99.90;;;;;;5040584;28;20441;-83
2023/06/10 04:56:21;;;;;;;0.50;0.30;;;17.90;99.90;;;;;;5040415;28;20448;-83
2023/06/10 04:58:48;;;;;;;0.50;0.40;;;17.90;99.90;;;;;;5039870;28;20434;-81
2023/06/10 05:01:15;;;;;;;0.50;0.30;;;18.00;99.90;;;;;;5035417;28;20444;-81
2023/06/10 05:03:43;;;;;;;0.50;0.30;;;18.10;99.90;;;;;;5035003;28;20472;-80
2023/06/10 05:06:10;;;;;;;0.50;0.40;;;18.00;99.90;;;;;;5034487;28;20473;-81
2023/06/10 05:08:36;;;;;;;0.50;0.50;;;18.10;99.90;;;;;;5034604;28;20442;-80
2023/06/10 05:11:03;;;;;;;0.50;0.50;;;18.10;99.90;;;;;;5034571;28;20569;-80
2023/06/10 05:13:30;;;;;;;0.50;0.30;;;18.20;99.90;;;;;;5034718;28;20882;-80
2023/06/10 05:15:57;;;;;;;1.87;1.77;;;18.30;99.90;;;;;;5034545;28;20442;-80
2023/06/10 05:18:24;;;;;;;1.63;1.13;;;18.30;99.90;;;;;;5034537;28;20549;-80
2023/06/10 05:20:53;;;;;;;0.50;0.40;;;18.30;99.90;;;;;;5035015;28;20564;-80
2023/06/10 05:23:20;;;;;;;0.80;0.80;;;18.30;99.90;;;;;;5034099;28;20457;-80
2023/06/10 05:25:47;;;;;;;0.50;0.40;;;18.40;99.90;;;;;;5034064;28;20809;-80
2023/06/10 05:28:14;;;;;;;2.10;1.17;;;18.40;99.90;;;;;;5039109;28;20507;-80
2023/06/10 05:30:41;;;;;;;0.50;0.40;;;18.50;99.90;;;;;;5033474;28;20464;-80
2023/06/10 05:33:08;;;;;;;0.50;0.40;;;18.50;99.90;;;;;;5033950;28;20852;-81
2023/06/10 05:35:35;;;;;;;0.50;0.30;;;18.60;99.90;;;;;;5033587;28;20525;-80
2023/06/10 05:38:03;;;;;;;0.50;0.40;;;18.70;99.90;;;;;;5033956;28;20531;-80
2023/06/10 05:40:30;;;;;;;0.50;0.30;;;18.80;99.90;;;;;;5033504;28;20464;-81
2023/06/10 05:42:57;;;;;;;0.50;0.37;;;18.90;99.90;;;;;;5033998;28;20610;-80
2023/06/10 05:45:24;;;;;;;0.50;0.37;;;19.10;99.90;;;;;;5033937;28;20793;-80
2023/06/10 05:47:51;;;;;;;1.37;0.73;;;19.20;99.90;;;;;;5034046;28;20503;-78
2023/06/10 05:50:18;;;;;;;1.17;1.17;;;19.20;99.90;;;;;;5034157;28;20512;-80
2023/06/10 05:52:45;;;;;;;1.03;0.53;;;19.30;99.90;;;;;;5034033;28;20504;-81
2023/06/10 05:55:13;;;;;;;0.87;0.87;;;19.40;99.90;;;;;;5034294;28;20537;-81
2023/06/10 05:57:42;;;;;;;1.43;1.33;;;19.50;99.90;;;;;;5034142;28;20452;-80
2023/06/10 06:00:10;;;;;;;0.60;0.60;;;19.70;99.90;;;;;;5033550;28;20472;-78
2023/06/10 06:02:37;;;;;;;0.73;0.73;;;19.80;99.90;;;;;;5033157;28;20525;-77
2023/06/10 06:05:04;;;;;;;0.50;0.33;;;20.00;99.90;;;;;;5033546;28;20446;-80
2023/06/10 06:07:31;;;;;;;2.20;1.90;;;20.20;99.90;;;;;;5032765;28;20474;-80
2023/06/10 06:09:58;;;;;;;0.60;0.50;;;20.30;99.90;;;;;;5034173;28;20468;-81
2023/06/10 06:12:26;;;;;;;0.90;0.90;;;20.40;99.90;;;;;;5033454;28;20505;-80
2023/06/10 06:14:53;;;;;;;4.03;1.50;;;20.50;99.90;;;;;;5025158;28;20964;-80
2023/06/10 06:17:20;;;;;;;0.50;0.30;;;20.50;99.90;;;;;;5033216;28;20473;-80
2023/06/10 06:19:47;;;;;;;0.87;0.87;;;20.50;99.90;;;;;;5032658;28;20540;-81
2023/06/10 06:22:14;;;;;;;0.50;0.40;;;20.60;99.90;;;;;;5033252;28;20817;-80
2023/06/10 06:24:41;;;;;;;0.50;0.40;;;20.80;99.90;;;;;;5033239;28;20505;-81
2023/06/10 06:27:08;;;;;;;2.63;1.63;;;21.10;99.90;;;;;;5033731;28;20446;-80
2023/06/10 06:29:39;;;;;;;1.60;1.13;;;21.20;99.90;;;;;;5033122;28;21116;-79
2023/06/10 06:32:06;;;;;;;0.50;0.30;;;21.20;99.90;;;;;;5034036;28;20476;-80
2023/06/10 06:34:33;;;;;;;0.57;0.50;;;21.20;99.90;;;;;;5032856;28;20521;-81
2023/06/10 06:37:00;;;;;;;0.73;0.73;;;21.50;99.90;;;;;;5033262;28;20553;-80
2023/06/10 06:39:27;;;;;;;0.90;0.90;;;21.90;99.90;;;;;;5032825;28;20469;-81
2023/06/10 06:41:54;;;;;;;0.50;0.30;;;22.30;99.90;;;;;;5032602;28;20500;-81
2023/06/10 06:44:21;;;;;;;0.60;0.40;;;23.00;99.90;;;;;;5032885;28;20450;-80
2023/06/10 06:46:49;;;;;;;0.50;0.40;;;23.60;99.90;;;;;;5032461;28;20481;-81
2023/06/10 06:49:16;;;;;;;2.47;1.33;;;24.20;99.90;;;;;;5033075;28;20549;-80
2023/06/10 06:51:43;;;;;;;0.67;0.57;;;25.00;99.90;;;;;;5032729;28;20885;-80
2023/06/10 06:54:11;;;;;;;0.60;0.50;;;25.30;96.60;;;;;;5032956;28;20442;-81
2023/06/10 06:56:38;;;;;;;0.60;0.60;;;25.20;95.10;;;;;;5032258;28;20458;-80
2023/06/10 06:59:06;;;;;;;0.73;0.50;;;25.50;99.60;;;;;;5032428;28;20985;-81
2023/06/10 07:01:34;;;;;;;1.43;1.10;;;26.20;94.70;;;;;;5032596;28;20449;-81
2023/06/10 07:04:02;;;;;;;1.00;1.00;;;26.40;90.20;;;;;;5032434;28;20470;-81
2023/06/10 07:06:29;;;;;;;0.93;0.93;;;26.10;89.50;;;;;;5032232;28;20544;-82
2023/06/10 07:08:56;;;;;;;0.50;0.40;;;26.00;88.80;;;;;;5032540;28;20466;-80
2023/06/10 07:11:23;;;;;;;2.20;0.50;;;26.20;91.20;;;;;;5032164;28;20993;-79
2023/06/10 07:13:49;;;;;;;0.50;0.40;;;26.60;89.50;;;;;;5032361;28;20482;-81
2023/06/10 07:16:16;;;;;;;2.00;1.50;;;27.30;90.40;;;;;;5032335;28;20814;-80
2023/06/10 07:18:43;;;;;;;0.87;0.87;;;27.70;86.20;;;;;;5031989;28;20474;-80
2023/06/10 07:21:11;;;;;;;0.70;0.60;;;28.10;81.20;;;;;;5032128;28;20446;-80
2023/06/10 07:23:38;;;;;;;1.20;1.20;;;28.50;82.70;;;;;;5032072;28;20461;-77
2023/06/10 07:26:05;;;;;;;0.50;0.37;;;29.30;80.50;;;;;;5032984;28;20453;-82
2023/06/10 07:28:32;;;;;;;1.20;1.10;;;29.50;73.40;;;;;;5031968;28;20474;-78
2023/06/10 07:30:58;;;;;;;0.90;0.90;;;29.40;73.00;;;;;;5023964;28;20492;-81
2023/06/10 07:33:25;;;;;;;0.60;0.50;;;28.80;70.10;;;;;;5031749;28;20553;-80
2023/06/10 07:35:52;;;;;;;0.70;0.70;;;28.60;70.70;;;;;;5032092;28;20553;-81
2023/06/10 07:38:20;;;;;;;0.57;0.47;;;28.50;72.70;;;;;;5032086;28;20883;-81
2023/06/10 07:40:47;;;;;;;0.63;0.63;;;28.30;71.60;;;;;;5031013;28;20493;-81
2023/06/10 07:43:14;;;;;;;0.50;0.30;;;28.70;73.70;;;;;;5032923;28;20882;-80
2023/06/10 07:45:41;;;;;;;1.53;1.43;;;29.30;72.30;;;;;;5031694;28;20813;-77
2023/06/10 07:48:08;;;;;;;0.70;0.60;;;30.30;71.90;;;;;;5032183;28;20442;-81
2023/06/10 07:50:35;;;;;;;0.50;0.40;;;30.70;69.40;;;;;;5031648;28;20557;-81
2023/06/10 07:53:02;;;;;;;1.00;0.73;;;31.10;67.10;;;;;;5032119;28;20480;-81
2023/06/10 07:55:31;;;;;;;7.27;2.10;;;30.50;65.10;;;;;;5035068;28;20525;-83
2023/06/10 07:57:57;;;;;;;0.50;0.30;;;30.10;66.00;;;;;;5031954;28;20529;-82
2023/06/10 08:00:24;;;;;;;0.50;0.40;;;30.70;70.00;;;;;;5033101;28;20545;-80
2023/06/10 08:02:51;;;;;;;0.50;0.30;;;31.00;63.80;;;;;;5032634;28;20549;-81
2023/06/10 08:05:18;;;;;;;4.27;1.03;;;31.40;68.30;;;;;;5031805;28;20450;-81
2023/06/10 08:07:46;;;;;;;0.87;0.87;;;31.30;61.60;;;;;;5031110;28;21017;-76
2023/06/10 08:10:12;;;;;;;2.77;0.70;;;31.40;63.80;;;;;;5032754;28;20981;-81
2023/06/10 08:12:41;;;;;;;2.77;2.20;;;31.40;61.80;;;;;;5035173;28;20576;-80
2023/06/10 08:15:08;;;;;;;0.60;0.60;;;31.60;62.20;;;;;;5035629;28;20449;-80
2023/06/10 08:17:35;;;;;;;0.50;0.30;;;32.30;65.10;;;;;;5035428;28;20926;-80
2023/06/10 08:20:02;;;;;;;0.50;0.30;;;33.30;64.40;;;;;;5035088;28;20556;-80
2023/06/10 08:22:29;;;;;;;0.60;0.60;;;33.60;61.10;;;;;;5035537;28;20441;-81
2023/06/10 08:24:57;;;;;;;0.50;0.30;;;34.20;60.10;;;;;;5035862;28;20440;-81
2023/06/10 08:27:26;;;;;;;0.50;0.40;;;34.70;59.70;;;;;;5036295;28;20450;-81
2023/06/10 08:29:54;;;;;;;1.53;0.70;;;35.10;57.80;;;;;;5034913;28;20505;-83
2023/06/10 08:32:21;;;;;;;1.63;0.83;;;34.90;56.10;;;;;;5035750;28;20561;-83
2023/06/10 08:34:48;;;;;;;1.97;1.87;;;35.20;56.90;;;;;;5035481;28;20938;-81
2023/06/10 08:37:15;;;;;;;0.50;0.40;;;34.90;54.90;;;;;;5038611;28;20447;-81
2023/06/10 08:39:42;;;;;;;0.70;0.50;;;34.60;57.50;;;;;;5036387;28;20462;-83
2023/06/10 08:42:18;;;;;;;0.40;0.30;;;34.70;55.80;;;;;;5035988;28;20438;-82
2023/06/10 08:44:47;;;;;;;1.80;1.70;;;34.70;57.70;;;;;;5035575;28;20476;-81
2023/06/10 08:47:17;;;;;;;0.93;0.60;;;35.20;56.70;;;;;;5035743;28;21017;-82
2023/06/10 08:49:46;;;;;;;0.50;0.40;;;35.00;53.30;;;;;;5034564;28;20533;-79
2023/06/10 08:52:16;;;;;;;0.80;0.80;;;34.00;54.90;;;;;;5036451;28;20473;-81
2023/06/10 08:54:47;;;;;;;0.50;0.30;;;34.20;55.60;;;;;;5034797;28;20449;-80
2023/06/10 08:57:14;;;;;;;1.43;1.10;;;33.90;56.00;;;;;;5034858;28;20569;-81
2023/06/10 08:59:42;;;;;;;0.50;0.47;;;34.00;54.80;;;;;;5035069;28;20515;-81
2023/06/10 09:02:10;;;;;;;1.07;0.97;;;34.10;55.50;;;;;;5034613;28;20449;-81
2023/06/10 09:04:39;;;;;;;0.50;0.40;;;34.60;58.60;;;;;;5038341;28;20457;-82
2023/06/10 09:07:07;;;;;;;0.50;0.40;;;35.20;54.70;;;;;;5026913;28;20481;-81
2023/06/10 09:09:36;;;;;;;0.47;0.30;;;35.90;54.80;;;;;;5034753;28;20467;-79
2023/06/10 09:12:03;;;;;;;0.50;0.40;;;35.70;53.50;;;;;;5034590;28;20522;-81
2023/06/10 09:14:30;;;;;;;0.50;0.30;;;35.30;52.30;;;;;;5034689;28;20523;-81
2023/06/10 09:16:57;;;;;;;1.23;0.70;;;35.00;53.50;;;;;;5037866;28;20870;-80
2023/06/10 09:19:26;;;;;;;1.37;1.27;;;34.80;53.10;;;;;;5034483;28;20466;-81
2023/06/10 09:21:54;;;;;;;0.50;0.47;;;34.70;53.40;;;;;;5034424;28;20489;-81
2023/06/10 09:24:22;;;;;;;0.50;0.40;;;34.80;53.50;;;;;;5034732;28;20548;-81
2023/06/10 09:27:02;;;;;;;0.50;0.43;;;35.00;54.10;;;;;;5034207;28;20448;-81
2023/06/10 09:29:29;;;;;;;0.50;0.30;;;35.10;53.70;;;;;;5034916;28;20523;-81
2023/06/10 09:31:56;;;;;;;0.50;0.43;;;36.10;56.20;;;;;;5034273;28;20478;-81
2023/06/10 09:34:26;;;;;;;0.50;0.40;;;37.10;53.60;;;;;;5033878;28;20469;-81
2023/06/10 09:36:55;;;;;;;0.50;0.50;;;37.30;52.00;;;;;;5034196;28;20445;-80
2023/06/10 09:39:22;;;;;;;0.80;0.50;;;37.20;53.10;;;;;;5033982;28;20520;-80
2023/06/10 09:41:49;;;;;;;0.63;0.63;;;37.70;54.50;;;;;;5034020;28;20538;-81
2023/06/10 09:44:17;;;;;;;0.50;0.40;;;37.90;50.30;;;;;;5036054;28;20474;-81
2023/06/10 09:46:47;;;;;;;0.50;0.50;;;37.50;50.30;;;;;;5033403;28;20578;-78
2023/06/10 09:49:14;;;;;;;0.40;0.30;;;37.30;51.70;;;;;;5034067;28;20472;-81
2023/06/10 09:51:51;;;;;;;0.50;0.40;;;37.30;51.80;;;;;;5034220;28;20444;-80
2023/06/10 09:54:19;;;;;;;2.40;0.80;;;38.10;52.00;;;;;;5033894;28;20474;-81
2023/06/10 09:56:48;;;;;;;0.87;0.87;;;38.40;48.40;;;;;;5034293;28;20961;-82
2023/06/10 09:59:15;;;;;;;0.47;0.43;;;38.00;48.50;;;;;;5034399;28;20538;-81
2023/06/10 10:01:42;;;;;;;0.60;0.60;;;37.70;50.80;;;;;;5034072;28;20505;-80
2023/06/10 10:04:09;;;;;;;0.40;0.30;;;38.10;51.70;;;;;;5033769;28;20454;-81
2023/06/10 10:06:37;;;;;;;0.77;0.77;;;38.40;49.80;;;;;;5034037;28;20456;-81
2023/06/10 10:09:05;;;;;;;1.10;1.00;;;38.90;50.30;;;;;;5033733;28;20548;-81
2023/06/10 10:11:35;;;;;;;0.60;0.57;;;38.70;47.20;;;;;;5033595;28;20947;-81
2023/06/10 10:14:06;;;;;;;0.40;0.30;;;38.00;49.40;;;;;;5037102;28;20605;-81
2023/06/10 10:16:39;;;;;;;0.40;0.30;;;38.60;51.00;;;;;;5051483;28;20444;-82
2023/06/10 10:19:09;;;;;;;1.33;0.90;;;38.90;48.60;;;;;;5050808;28;20878;-81
2023/06/10 10:21:43;;;;;;;0.40;0.30;;;38.80;47.40;;;;;;5051924;28;20472;-82
2023/06/10 10:24:16;;;;;;;0.50;0.50;;;38.30;49.20;;;;;;5043913;28;20827;-81
2023/06/10 10:26:46;;;;;;;0.50;0.40;;;38.80;50.80;;;;;;5049885;28;20458;-82
2023/06/10 10:29:21;;;;;;;0.63;0.57;;;39.00;47.20;;;;;;5051677;28;20498;-82
2023/06/10 10:31:53;;;;;;;0.40;0.30;;;39.20;48.40;;;;;;5050450;28;20440;-80
2023/06/10 10:34:24;;;;;;;0.40;0.30;;;39.30;49.70;;;;;;5042547;28;20531;-81
2023/06/10 10:36:51;;;;;;;0.50;0.40;;;39.90;49.40;;;;;;5048566;28;20449;-82
2023/06/10 10:39:19;;;;;;;0.47;0.40;;;39.80;47.10;;;;;;5051537;28;20487;-79
2023/06/10 10:41:48;;;;;;;0.50;0.40;;;40.10;48.00;;;;;;5050920;28;20527;-82
2023/06/10 10:44:16;;;;;;;0.50;0.47;;;40.20;46.80;;;;;;5050468;28;20496;-83
2023/06/10 10:46:44;;;;;;;0.70;0.60;;;40.40;47.00;;;;;;5037696;28;20457;-82
2023/06/10 10:49:13;;;;;;;0.90;0.90;;;40.10;46.00;;;;;;5029212;28;20454;-83
2023/06/10 10:51:55;;;;;;;2.40;0.57;;;39.90;44.80;;;;;;5036379;28;20443;-81
2023/06/10 10:54:29;;;;;;;0.60;0.60;;;39.80;46.90;;;;;;5030060;28;20526;-83
2023/06/10 10:57:13;;;;;;;0.80;0.40;;;39.80;46.80;;;;;;5033135;28;20438;-80
2023/06/10 11:00:04;;;;;;;2.10;1.00;;;40.00;46.70;;;;;;5034791;28;20494;-80
2023/06/10 11:02:38;;;;;;;2.40;2.20;;;39.80;45.50;;;;;;5025538;28;20471;-80
2023/06/10 11:05:07;;;;;;;1.40;0.90;;;39.10;45.10;;;;;;5032334;28;20448;-82
2023/06/10 11:07:36;;;;;;;0.50;0.40;;;38.20;45.30;;;;;;5032488;28;20464;-80
2023/06/10 11:10:06;;;;;;;0.50;0.40;;;37.60;48.50;;;;;;5032067;28;20463;-81
2023/06/10 11:12:52;;;;;;;0.40;0.30;;;37.70;47.40;;;;;;5031973;28;20443;-81
2023/06/10 11:15:24;;;;;;;0.50;0.40;;;37.30;47.20;;;;;;5025471;28;20509;-81
2023/06/10 11:18:31;;;;;;;0.83;0.73;;;37.40;46.60;;;;;;5031848;28;20938;-80
2023/06/10 11:21:00;;;;;;;0.63;0.60;;;37.40;47.20;;;;;;5027540;28;20557;-81
2023/06/10 11:23:35;;;;;;;0.80;0.80;;;38.20;49.50;;;;;;5032385;28;20527;-81
2023/06/10 11:26:18;;;;;;;0.70;0.70;;;38.60;46.10;;;;;;5033887;28;20485;-81
2023/06/10 11:29:08;;;;;;;4.30;1.63;;;38.20;46.10;;;;;;5031826;28;20451;-80
2023/06/10 11:31:41;;;;;;;1.33;1.13;;;38.10;46.50;;;;;;5027837;28;20442;-81
2023/06/10 11:34:09;;;;;;;1.73;1.63;;;38.10;45.50;;;;;;5032427;28;20478;-81
2023/06/10 11:36:40;;;;;;;0.40;0.30;;;38.00;45.80;;;;;;5032440;28;20534;-81
2023/06/10 11:39:07;;;;;;;0.60;0.40;;;37.80;45.80;;;;;;5034888;28;21815;-83
2023/06/10 11:41:35;;;;;;;0.40;0.30;;;38.00;45.80;;;;;;5031632;28;20535;-81
2023/06/10 11:44:04;;;;;;;0.40;0.30;;;38.30;47.20;;;;;;5031488;28;20446;-81
2023/06/10 11:46:32;;;;;;;0.50;0.40;;;38.90;47.20;;;;;;5031767;28;20439;-80
2023/06/10 11:49:00;;;;;;;0.40;0.30;;;39.60;45.10;;;;;;5031328;28;20473;-82
2023/06/10 11:51:29;;;;;;;0.70;0.70;;;39.90;46.50;;;;;;5031994;28;20452;-81
2023/06/10 11:53:56;;;;;;;1.87;0.80;;;40.30;45.10;;;;;;5031372;28;20537;-81
2023/06/10 11:56:25;;;;;;;0.40;0.40;;;40.40;45.10;;;;;;5031346;28;20449;-81
2023/06/10 11:58:55;;;;;;;0.40;0.30;;;40.60;46.30;;;;;;5031359;28;20459;-81
2023/06/10 12:01:22;;;;;;;0.40;0.40;;;40.90;45.50;;;;;;5031387;28;20448;-83
2023/06/10 12:03:57;;;;;;;1.60;1.50;;;41.00;43.70;;;;;;5031524;28;20476;-80
2023/06/10 12:06:25;;;;;;;1.23;0.97;;;40.60;42.90;;;;;;5031176;28;20443;-82
2023/06/10 12:08:51;;;;;;;0.63;0.60;;;40.10;42.00;;;;;;5032701;28;20524;-82
2023/06/10 12:11:18;;;;;;;0.50;0.50;;;39.90;42.70;;;;;;5032381;28;20551;-83
2023/06/10 12:13:50;;;;;;;0.63;0.60;;;39.00;42.90;;;;;;5031752;28;20461;-81
2023/06/10 12:16:19;;;;;;;0.40;0.40;;;39.40;44.20;;;;;;5024152;28;20463;-82
2023/06/10 12:18:47;;;;;;;0.87;0.60;;;39.50;43.70;;;;;;5031896;28;20452;-80
2023/06/10 12:21:25;;;;;;;1.10;1.10;;;39.70;42.80;;;;;;5031197;28;20844;-81
2023/06/10 12:24:06;;;;;;;1.47;1.37;;;40.10;43.40;;;;;;5031056;28;20479;-81
2023/06/10 12:26:41;;;;;;;0.40;0.40;;;39.40;40.70;;;;;;5031380;28;20451;-81
2023/06/10 12:29:18;;;;;;;0.60;0.60;;;39.00;42.00;;;;;;5030925;28;20470;-81
2023/06/10 12:32:03;;;;;;;1.43;1.33;;;38.60;42.10;;;;;;5031329;28;20458;-81
2023/06/10 12:34:35;;;;;;;2.30;1.90;;;37.70;43.90;;;;;;5024932;28;20959;-82
2023/06/10 12:37:04;;;;;;;1.00;0.73;;;37.00;45.60;;;;;;5031142;28;20442;-82
2023/06/10 12:39:32;;;;;;;0.60;0.60;;;37.00;45.20;;;;;;5031361;28;20471;-81
2023/06/10 12:42:00;;;;;;;1.33;1.23;;;37.30;46.70;;;;;;5031237;28;20438;-81
2023/06/10 12:44:31;;;;;;;0.80;0.70;;;37.60;43.80;;;;;;5030965;28;20565;-82
2023/06/10 12:46:58;;;;;;;1.10;0.70;;;37.40;43.70;;;;;;5030881;28;20485;-79
2023/06/10 12:49:26;;;;;;;0.50;0.50;;;37.20;44.30;;;;;;5045180;28;20469;-81
2023/06/10 12:51:53;;;;;;;1.17;1.17;;;37.40;44.90;;;;;;5045960;28;20439;-81
2023/06/10 12:54:21;;;;;;;2.07;1.97;;;38.00;45.80;;;;;;5048927;28;20466;-82